Time;durP1;ratioP1;P1;durP2;ratioP2;P2;SDS_P1;SDS_P2;PMS_P1;PMS_P2;Temp;Humidity;BMP_temperature;BMP_pressure;BME280_temperature;BME280_humidity;BME280_pressure;Samples;Min_cycle;Max_cycle;Signal;HPM_P1;HPM_P2
2023/10/27 00:01:24;;;;;;;3.83;1.90;;;;;;;;;;5071486;28;20640;-78
2023/10/27 00:03:51;;;;;;;4.00;2.43;;;;;;;;;;5071125;28;20210;-78
2023/10/27 00:06:18;;;;;;;3.67;1.70;;;;;;;;;;5071190;28;20355;-78
2023/10/27 00:08:45;;;;;;;4.67;1.80;;;;;;;;;;5058629;28;20251;-79
2023/10/27 00:11:13;;;;;;;4.80;2.10;;;;;;;;;;5044721;28;20197;-78
2023/10/27 00:13:40;;;;;;;5.43;1.77;;;;;;;;;;5070800;28;20221;-79
2023/10/27 00:16:10;;;;;;;5.57;2.37;;;;;;;;;;5071816;28;20201;-78
2023/10/27 00:18:37;;;;;;;2.07;1.60;;;;;;;;;;5070953;28;20770;-78
2023/10/27 00:21:04;;;;;;;3.57;1.77;;;;;;;;;;5053445;28;20215;-78
2023/10/27 00:23:32;;;;;;;2.37;2.17;;;;;;;;;;5046545;28;20306;-78
2023/10/27 00:25:58;;;;;;;5.90;2.23;;;;;;;;;;5070572;28;20224;-78
2023/10/27 00:28:27;;;;;;;5.97;2.23;;;;;;;;;;5044744;28;20197;-79
2023/10/27 00:30:54;;;;;;;3.63;1.97;;;;;;;;;;5070764;28;20609;-78
2023/10/27 00:33:20;;;;;;;3.03;2.17;;;;;;;;;;5070448;28;20235;-79
2023/10/27 00:35:50;;;;;;;5.93;2.30;;;;;;;;;;5071310;28;20197;-78
2023/10/27 00:38:17;;;;;;;5.20;2.10;;;;;;;;;;5070933;28;20572;-79
2023/10/27 00:40:44;;;;;;;6.03;2.13;;;;;;;;;;5070584;28;20204;-78
2023/10/27 00:43:14;;;;;;;4.87;2.67;;;;;;;;;;5070581;28;20240;-79
2023/10/27 00:45:43;;;;;;;5.50;2.03;;;;;;;;;;5070196;28;20205;-78
2023/10/27 00:48:10;;;;;;;4.63;1.90;;;;;;;;;;5070921;28;20197;-78
2023/10/27 00:50:37;;;;;;;6.03;2.23;;;;;;;;;;5070220;28;20229;-78
2023/10/27 00:53:04;;;;;;;2.07;1.80;;;;;;;;;;5069300;28;20244;-78
2023/10/27 00:55:31;;;;;;;3.30;2.07;;;;;;;;;;5069214;28;20209;-78
2023/10/27 00:57:58;;;;;;;2.57;2.20;;;;;;;;;;5070428;28;20212;-78
2023/10/27 01:00:25;;;;;;;5.17;2.00;;;;;;;;;;5070553;28;20208;-78
2023/10/27 01:02:53;;;;;;;5.93;2.50;;;;;;;;;;5070820;28;20208;-78
2023/10/27 01:05:20;;;;;;;6.23;1.87;;;;;;;;;;5070867;28;20205;-78
2023/10/27 01:07:47;;;;;;;4.17;2.07;;;;;;;;;;5070166;28;20672;-78
2023/10/27 01:10:13;;;;;;;8.40;2.70;;;;;;;;;;5070587;28;20211;-78
2023/10/27 01:12:45;;;;;;;7.63;2.77;;;;;;;;;;5070321;28;20209;-78
2023/10/27 01:15:12;;;;;;;3.37;2.10;;;;;;;;;;5070567;28;20205;-78
2023/10/27 01:17:39;;;;;;;3.13;1.80;;;;;;;;;;5044109;28;20274;-78
2023/10/27 01:20:09;;;;;;;7.03;2.30;;;;;;;;;;5069943;28;20577;-78
2023/10/27 01:22:42;;;;;;;2.77;1.90;;;;;;;;;;5045047;28;20279;-78
2023/10/27 01:25:09;;;;;;;3.50;1.80;;;;;;;;;;5070283;28;20201;-77
2023/10/27 01:27:36;;;;;;;2.87;2.17;;;;;;;;;;5070363;28;20603;-77
2023/10/27 01:30:04;;;;;;;5.63;3.13;;;;;;;;;;5070366;28;20213;-78
2023/10/27 01:32:30;;;;;;;4.67;2.47;;;;;;;;;;5070830;28;20201;-78
2023/10/27 01:34:57;;;;;;;4.13;2.40;;;;;;;;;;5067486;28;20227;-78
2023/10/27 01:37:24;;;;;;;7.70;2.13;;;;;;;;;;5059898;28;20197;-78
2023/10/27 01:39:52;;;;;;;7.10;2.27;;;;;;;;;;5070553;28;20258;-78
2023/10/27 01:42:19;;;;;;;4.77;2.07;;;;;;;;;;5069901;28;20209;-78
2023/10/27 01:44:46;;;;;;;4.23;2.50;;;;;;;;;;5070273;28;20201;-79
2023/10/27 01:47:12;;;;;;;8.83;2.70;;;;;;;;;;5070269;28;20216;-78
2023/10/27 01:49:39;;;;;;;7.03;2.70;;;;;;;;;;5069880;28;20692;-78
2023/10/27 01:52:06;;;;;;;4.90;2.23;;;;;;;;;;5069946;28;20255;-78
2023/10/27 01:54:33;;;;;;;4.90;2.67;;;;;;;;;;5066486;28;20222;-78
2023/10/27 01:57:01;;;;;;;8.50;3.10;;;;;;;;;;5060531;28;20643;-78
2023/10/27 01:59:29;;;;;;;4.70;2.73;;;;;;;;;;5069323;28;20199;-78
2023/10/27 02:01:55;;;;;;;3.53;2.10;;;;;;;;;;5070087;28;20679;-78
2023/10/27 02:04:22;;;;;;;3.53;2.23;;;;;;;;;;5069342;28;20234;-78
2023/10/27 02:06:49;;;;;;;3.07;2.07;;;;;;;;;;5071112;28;20205;-78
2023/10/27 02:09:16;;;;;;;4.47;2.10;;;;;;;;;;5073292;28;20216;-78
2023/10/27 02:11:43;;;;;;;5.03;2.00;;;;;;;;;;5073339;28;20204;-78
2023/10/27 02:14:11;;;;;;;4.87;2.53;;;;;;;;;;5073296;28;20252;-77
2023/10/27 02:16:38;;;;;;;4.17;2.57;;;;;;;;;;5072910;28;20675;-77
2023/10/27 02:19:05;;;;;;;4.40;2.53;;;;;;;;;;5068332;28;20205;-78
2023/10/27 02:21:31;;;;;;;9.10;2.97;;;;;;;;;;5071673;28;20209;-78
2023/10/27 02:23:58;;;;;;;3.80;2.60;;;;;;;;;;5069216;28;20201;-77
2023/10/27 02:26:25;;;;;;;4.03;2.90;;;;;;;;;;5073382;28;20201;-77
2023/10/27 02:28:52;;;;;;;5.97;2.40;;;;;;;;;;5073076;28;20197;-77
2023/10/27 02:31:20;;;;;;;8.93;3.00;;;;;;;;;;5073712;28;20224;-77
2023/10/27 02:33:47;;;;;;;5.47;2.73;;;;;;;;;;5073063;28;20648;-77
2023/10/27 02:36:13;;;;;;;7.87;2.67;;;;;;;;;;5073458;28;20204;-77
2023/10/27 02:38:40;;;;;;;4.07;2.20;;;;;;;;;;5072741;28;20205;-77
2023/10/27 02:41:10;;;;;;;5.00;2.40;;;;;;;;;;5073730;28;20209;-77
2023/10/27 02:43:37;;;;;;;13.73;3.20;;;;;;;;;;5072582;28;20208;-76
2023/10/27 02:46:05;;;;;;;8.77;2.43;;;;;;;;;;5073227;28;20205;-77
2023/10/27 02:48:34;;;;;;;6.27;2.70;;;;;;;;;;5072768;28;20212;-80
2023/10/27 02:51:00;;;;;;;3.70;2.23;;;;;;;;;;5056236;28;20599;-77
2023/10/27 02:53:27;;;;;;;5.67;2.40;;;;;;;;;;5072305;28;20259;-77
2023/10/27 02:55:54;;;;;;;5.23;1.90;;;;;;;;;;5072460;28;20197;-77
2023/10/27 02:58:21;;;;;;;6.60;2.80;;;;;;;;;;5072970;28;20650;-77
2023/10/27 03:00:47;;;;;;;3.33;2.33;;;;;;;;;;5072259;28;20625;-76
2023/10/27 03:03:14;;;;;;;4.20;2.27;;;;;;;;;;5072396;28;20208;-77
2023/10/27 03:05:42;;;;;;;4.47;2.77;;;;;;;;;;5072430;28;20288;-78
2023/10/27 03:08:09;;;;;;;6.23;2.27;;;;;;;;;;5072731;28;20208;-78
2023/10/27 03:10:36;;;;;;;9.27;6.67;;;;;;;;;;5072091;28;20296;-77
2023/10/27 03:13:08;;;;;;;13.63;7.97;;;;;;;;;;5072035;28;20584;-77
2023/10/27 03:15:35;;;;;;;12.50;9.97;;;;;;;;;;5071866;28;20225;-76
2023/10/27 03:18:01;;;;;;;13.30;9.07;;;;;;;;;;5063202;28;20201;-76
2023/10/27 03:20:28;;;;;;;5.03;3.87;;;;;;;;;;5067549;28;20255;-76
2023/10/27 03:22:56;;;;;;;4.27;3.83;;;;;;;;;;5071747;28;20671;-77
2023/10/27 03:25:23;;;;;;;6.53;4.13;;;;;;;;;;5071925;28;20205;-77
2023/10/27 03:27:50;;;;;;;6.60;4.30;;;;;;;;;;5072085;28;20208;-77
2023/10/27 03:30:17;;;;;;;5.73;3.30;;;;;;;;;;5071339;28;20300;-77
2023/10/27 03:32:44;;;;;;;8.00;3.43;;;;;;;;;;5072168;28;20193;-77
2023/10/27 03:35:10;;;;;;;3.63;2.70;;;;;;;;;;5071430;28;20723;-78
2023/10/27 03:37:37;;;;;;;3.10;2.37;;;;;;;;;;5071652;28;20208;-78
2023/10/27 03:40:08;;;;;;;3.47;2.47;;;;;;;;;;5072493;28;20209;-77
2023/10/27 03:42:35;;;;;;;4.60;3.10;;;;;;;;;;5071535;28;20291;-77
2023/10/27 03:45:01;;;;;;;12.97;6.60;;;;;;;;;;5071797;28;20197;-77
2023/10/27 03:47:28;;;;;;;7.97;4.53;;;;;;;;;;5070951;28;20208;-77
2023/10/27 03:49:55;;;;;;;5.23;3.00;;;;;;;;;;5066493;28;20217;-77
2023/10/27 03:52:22;;;;;;;8.53;5.33;;;;;;;;;;5052465;28;20606;-77
2023/10/27 03:54:49;;;;;;;7.73;3.80;;;;;;;;;;5051819;28;20723;-77
2023/10/27 03:57:17;;;;;;;6.17;3.03;;;;;;;;;;5051575;28;20573;-77
2023/10/27 03:59:46;;;;;;;9.07;6.00;;;;;;;;;;5051586;28;20204;-77
2023/10/27 04:02:12;;;;;;;8.57;4.03;;;;;;;;;;5051486;28;20217;-77
2023/10/27 04:04:39;;;;;;;11.47;3.63;;;;;;;;;;5040864;28;20217;-77
2023/10/27 04:07:06;;;;;;;4.03;2.60;;;;;;;;;;5059433;28;20266;-77
2023/10/27 04:09:33;;;;;;;3.03;2.57;;;;;;;;;;5069303;28;20709;-78
2023/10/27 04:11:59;;;;;;;7.93;2.97;;;;;;;;;;5071302;28;20208;-78
2023/10/27 04:14:28;;;;;;;5.90;2.83;;;;;;;;;;5061433;28;20229;-76
2023/10/27 04:16:55;;;;;;;7.97;3.50;;;;;;;;;;5064722;28;20288;-76
2023/10/27 04:19:22;;;;;;;3.60;2.83;;;;;;;;;;5071322;28;20293;-76
2023/10/27 04:21:48;;;;;;;13.53;11.10;;;;;;;;;;5069750;28;20209;-76
2023/10/27 04:24:15;;;;;;;5.60;3.80;;;;;;;;;;5068799;28;20205;-77
2023/10/27 04:26:42;;;;;;;7.03;3.30;;;;;;;;;;5071017;28;20197;-77
2023/10/27 04:29:09;;;;;;;4.93;3.47;;;;;;;;;;5070862;28;20287;-76
2023/10/27 04:31:39;;;;;;;6.20;4.30;;;;;;;;;;5070318;28;20568;-77
2023/10/27 04:34:06;;;;;;;8.20;4.17;;;;;;;;;;5070568;28;20609;-76
2023/10/27 04:36:33;;;;;;;7.23;3.87;;;;;;;;;;5069384;28;20205;-77
2023/10/27 04:38:59;;;;;;;8.07;3.43;;;;;;;;;;5070428;28;20201;-76
2023/10/27 04:41:30;;;;;;;8.10;3.50;;;;;;;;;;5071157;28;20197;-76
2023/10/27 04:43:58;;;;;;;5.23;3.87;;;;;;;;;;5070174;28;20714;-76
2023/10/27 04:46:24;;;;;;;10.33;4.30;;;;;;;;;;5070278;28;20250;-76
2023/10/27 04:48:53;;;;;;;6.47;3.50;;;;;;;;;;5069428;28;20235;-76
2023/10/27 04:51:20;;;;;;;8.67;3.70;;;;;;;;;;5070141;28;20225;-76
2023/10/27 04:53:47;;;;;;;5.37;3.43;;;;;;;;;;5070291;28;20201;-76
2023/10/27 04:56:14;;;;;;;6.90;2.67;;;;;;;;;;5069991;28;20274;-76
2023/10/27 04:58:42;;;;;;;5.27;2.43;;;;;;;;;;5070352;28;20205;-76
2023/10/27 05:01:09;;;;;;;14.87;3.90;;;;;;;;;;5069631;28;20232;-76
2023/10/27 05:03:36;;;;;;;2.80;2.10;;;;;;;;;;5069556;28;20646;-77
2023/10/27 05:06:11;;;;;;;2.47;2.27;;;;;;;;;;5069714;28;20208;-76
2023/10/27 05:08:38;;;;;;;10.17;5.50;;;;;;;;;;5069842;28;20254;-76
2023/10/27 05:11:05;;;;;;;9.10;5.17;;;;;;;;;;5069468;28;20212;-77
2023/10/27 05:13:31;;;;;;;32.37;20.73;;;;;;;;;;5063331;28;20210;-77
2023/10/27 05:15:58;;;;;;;28.20;15.53;;;;;;;;;;5042464;28;20666;-76
2023/10/27 05:18:25;;;;;;;14.17;5.50;;;;;;;;;;5052888;28;20205;-76
2023/10/27 05:20:53;;;;;;;7.97;4.17;;;;;;;;;;5061111;28;20210;-77
2023/10/27 05:23:21;;;;;;;5.70;3.40;;;;;;;;;;5062305;28;20585;-77
2023/10/27 05:25:48;;;;;;;6.57;5.20;;;;;;;;;;5059403;28;20197;-78
2023/10/27 05:28:14;;;;;;;7.47;4.10;;;;;;;;;;5060421;28;20208;-76
2023/10/27 05:30:43;;;;;;;6.53;4.20;;;;;;;;;;5057940;28;20206;-76
2023/10/27 05:33:10;;;;;;;4.50;3.10;;;;;;;;;;5060367;28;20197;-76
2023/10/27 05:35:37;;;;;;;9.20;3.20;;;;;;;;;;5053883;28;20267;-76
2023/10/27 05:38:04;;;;;;;7.57;3.40;;;;;;;;;;5067755;28;20217;-76
2023/10/27 05:40:33;;;;;;;7.87;5.10;;;;;;;;;;5068798;28;20209;-76
2023/10/27 05:43:00;;;;;;;8.40;5.73;;;;;;;;;;5071055;28;20579;-76
2023/10/27 05:45:27;;;;;;;11.53;5.57;;;;;;;;;;5072186;28;20258;-76
2023/10/27 05:47:54;;;;;;;6.47;4.70;;;;;;;;;;5072591;28;20200;-76
2023/10/27 05:50:20;;;;;;;13.00;5.47;;;;;;;;;;5073298;28;20221;-76
2023/10/27 05:52:50;;;;;;;11.07;5.57;;;;;;;;;;5073777;28;20203;-76
2023/10/27 05:55:16;;;;;;;8.10;4.00;;;;;;;;;;5073878;28;20232;-76
2023/10/27 05:57:45;;;;;;;9.20;3.90;;;;;;;;;;5073209;28;20189;-76
2023/10/27 06:00:12;;;;;;;8.60;5.97;;;;;;;;;;5073986;28;20207;-76
2023/10/27 06:02:39;;;;;;;11.00;5.13;;;;;;;;;;5073793;28;20206;-76
2023/10/27 06:05:06;;;;;;;4.20;3.30;;;;;;;;;;5074341;28;20219;-76
2023/10/27 06:07:33;;;;;;;5.97;3.43;;;;;;;;;;5073927;28;20209;-76
2023/10/27 06:10:00;;;;;;;6.20;3.77;;;;;;;;;;5074073;28;20202;-76
2023/10/27 06:12:26;;;;;;;7.07;3.73;;;;;;;;;;5073720;28;20252;-76
2023/10/27 06:14:55;;;;;;;13.40;5.63;;;;;;;;;;5073429;28;20222;-76
2023/10/27 06:17:21;;;;;;;9.93;5.20;;;;;;;;;;5073489;28;20197;-75
2023/10/27 06:19:48;;;;;;;5.63;4.43;;;;;;;;;;5074098;28;20205;-76
2023/10/27 06:22:15;;;;;;;7.17;4.47;;;;;;;;;;5072969;28;20205;-76
2023/10/27 06:24:42;;;;;;;9.73;3.03;;;;;;;;;;5073486;28;20204;-76
2023/10/27 06:27:08;;;;;;;11.43;4.70;;;;;;;;;;5073072;28;20432;-77
2023/10/27 06:29:35;;;;;;;8.83;3.60;;;;;;;;;;5073179;28;20203;-76
2023/10/27 06:32:04;;;;;;;12.33;3.80;;;;;;;;;;5072943;28;20263;-76
2023/10/27 06:34:31;;;;;;;8.10;3.43;;;;;;;;;;5073307;28;20204;-76
2023/10/27 06:36:58;;;;;;;5.77;3.33;;;;;;;;;;5073055;28;20185;-76
2023/10/27 06:39:25;;;;;;;9.53;3.77;;;;;;;;;;5073660;28;20204;-76
2023/10/27 06:41:52;;;;;;;8.80;3.70;;;;;;;;;;5072799;28;20216;-76
2023/10/27 06:44:19;;;;;;;12.17;2.93;;;;;;;;;;5060765;28;20215;-76
2023/10/27 06:46:45;;;;;;;14.00;4.80;;;;;;;;;;5072090;28;20219;-76
2023/10/27 06:49:14;;;;;;;9.47;4.07;;;;;;;;;;5073066;28;20208;-76
2023/10/27 06:51:41;;;;;;;13.40;4.07;;;;;;;;;;5066530;28;20218;-76
2023/10/27 06:54:10;;;;;;;5.90;3.43;;;;;;;;;;5064889;28;20203;-76
2023/10/27 06:56:36;;;;;;;7.63;3.97;;;;;;;;;;5047214;28;20230;-76
2023/10/27 06:59:03;;;;;;;8.77;3.30;;;;;;;;;;5073194;28;20253;-76
2023/10/27 07:01:30;;;;;;;7.27;3.47;;;;;;;;;;5073046;28;20207;-76
2023/10/27 07:03:57;;;;;;;6.10;3.60;;;;;;;;;;5072690;28;20208;-76
2023/10/27 07:06:26;;;;;;;8.33;3.03;;;;;;;;;;5072441;28;20199;-76
2023/10/27 07:08:52;;;;;;;5.50;2.80;;;;;;;;;;5072048;28;20634;-76
2023/10/27 07:11:19;;;;;;;9.13;3.60;;;;;;;;;;5072825;28;20196;-76
2023/10/27 07:13:46;;;;;;;7.97;3.43;;;;;;;;;;5072096;28;20607;-76
2023/10/27 07:16:13;;;;;;;7.50;3.10;;;;;;;;;;5072360;28;20222;-76
2023/10/27 07:18:40;;;;;;;4.70;3.03;;;;;;;;;;5071530;28;20213;-76
2023/10/27 07:21:09;;;;;;;10.30;3.40;;;;;;;;;;5072651;28;20201;-77
2023/10/27 07:23:37;;;;;;;10.47;2.93;;;;;;;;;;5072198;28;20209;-76
2023/10/27 07:26:14;;;;;;;8.17;3.27;;;;;;;;;;5072548;28;20579;-76
2023/10/27 07:28:41;;;;;;;15.37;2.93;;;;;;;;;;5070698;28;20212;-77
2023/10/27 07:31:08;;;;;;;8.30;3.40;;;;;;;;;;5071887;28;20202;-76
2023/10/27 07:33:35;;;;;;;8.53;3.43;;;;;;;;;;5071172;28;20205;-76
2023/10/27 07:36:03;;;;;;;8.07;2.87;;;;;;;;;;5072224;28;20239;-76
2023/10/27 07:38:30;;;;;;;9.47;3.67;;;;;;;;;;5071430;28;20683;-76
2023/10/27 07:40:59;;;;;;;5.97;2.60;;;;;;;;;;5071988;28;20224;-76
2023/10/27 07:43:26;;;;;;;6.23;2.93;;;;;;;;;;5071786;28;20213;-76
2023/10/27 07:45:55;;;;;;;10.37;3.67;;;;;;;;;;5072202;28;20204;-76
2023/10/27 07:48:21;;;;;;;8.53;2.50;;;;;;;;;;5071290;28;20246;-76
2023/10/27 07:50:48;;;;;;;5.70;2.40;;;;;;;;;;5072105;28;20316;-76
2023/10/27 07:53:15;;;;;;;13.97;3.57;;;;;;;;;;5071207;28;20208;-76
2023/10/27 07:55:42;;;;;;;6.23;2.67;;;;;;;;;;5071844;28;20817;-76
2023/10/27 07:58:11;;;;;;;6.67;2.87;;;;;;;;;;5071730;28;20201;-76
2023/10/27 08:00:38;;;;;;;7.20;2.77;;;;;;;;;;5071478;28;20208;-76
2023/10/27 08:03:05;;;;;;;8.07;3.03;;;;;;;;;;5045494;28;20663;-76
2023/10/27 08:05:32;;;;;;;8.27;3.00;;;;;;;;;;5070780;28;20208;-76
2023/10/27 08:07:59;;;;;;;10.33;2.83;;;;;;;;;;5071381;28;20197;-76
2023/10/27 08:10:26;;;;;;;8.60;2.53;;;;;;;;;;5071604;28;20228;-76
2023/10/27 08:12:53;;;;;;;11.17;3.10;;;;;;;;;;5071092;28;20279;-76
2023/10/27 08:15:21;;;;;;;9.37;3.20;;;;;;;;;;5070739;28;20223;-76
2023/10/27 08:17:48;;;;;;;4.90;3.03;;;;;;;;;;5070929;28;20261;-76
2023/10/27 08:20:16;;;;;;;3.20;2.50;;;;;;;;;;5071050;28;20205;-76
2023/10/27 08:22:43;;;;;;;5.00;2.20;;;;;;;;;;5071294;28;20201;-76
2023/10/27 08:25:10;;;;;;;5.63;2.90;;;;;;;;;;5071391;28;20209;-76
2023/10/27 08:27:37;;;;;;;6.67;3.00;;;;;;;;;;5070748;28;20201;-76
2023/10/27 08:30:04;;;;;;;9.87;3.73;;;;;;;;;;5071211;28;20232;-76
2023/10/27 08:32:32;;;;;;;5.63;2.60;;;;;;;;;;5071131;28;20200;-76
2023/10/27 08:34:59;;;;;;;9.60;3.13;;;;;;;;;;5070370;28;20205;-76
2023/10/27 08:37:26;;;;;;;7.43;3.33;;;;;;;;;;5070770;28;20256;-76
2023/10/27 08:39:53;;;;;;;11.83;3.23;;;;;;;;;;5070609;28;20205;-76
2023/10/27 08:42:20;;;;;;;11.47;3.50;;;;;;;;;;5071086;28;20204;-76
2023/10/27 08:44:47;;;;;;;5.30;2.77;;;;;;;;;;5070623;28;20190;-79
2023/10/27 08:47:13;;;;;;;9.33;4.80;;;;;;;;;;5070489;28;20208;-76
2023/10/27 08:49:41;;;;;;;11.43;3.40;;;;;;;;;;5070827;28;20228;-76
2023/10/27 08:52:09;;;;;;;7.60;4.20;;;;;;;;;;5070889;28;20207;-75
2023/10/27 08:54:39;;;;;;;7.47;3.53;;;;;;;;;;5070717;28;20638;-76
2023/10/27 08:57:08;;;;;;;9.10;3.33;;;;;;;;;;5070326;28;20621;-76
2023/10/27 08:59:36;;;;;;;7.03;3.20;;;;;;;;;;5070802;28;20255;-76
2023/10/27 09:02:03;;;;;;;9.37;3.33;;;;;;;;;;5070377;28;20285;-76
2023/10/27 09:04:31;;;;;;;10.23;3.87;;;;;;;;;;5070768;28;20200;-76
2023/10/27 09:06:59;;;;;;;8.10;2.90;;;;;;;;;;5070306;28;20240;-76
2023/10/27 09:09:27;;;;;;;8.47;3.17;;;;;;;;;;5070368;28;20232;-76
2023/10/27 09:11:54;;;;;;;12.10;2.90;;;;;;;;;;5070733;28;20212;-76
2023/10/27 09:14:23;;;;;;;9.43;4.67;;;;;;;;;;5070583;28;20270;-76
2023/10/27 09:16:50;;;;;;;6.67;2.67;;;;;;;;;;5069490;28;20236;-76
2023/10/27 09:19:21;;;;;;;6.57;3.10;;;;;;;;;;5070295;28;20641;-76
2023/10/27 09:21:48;;;;;;;8.80;3.40;;;;;;;;;;5070272;28;20201;-78
2023/10/27 09:24:26;;;;;;;8.07;2.80;;;;;;;;;;5070488;28;20204;-76
2023/10/27 09:26:53;;;;;;;12.13;3.47;;;;;;;;;;5069734;28;20209;-76
2023/10/27 09:29:20;;;;;;;9.10;3.23;;;;;;;;;;5070600;28;20577;-77
2023/10/27 09:31:47;;;;;;;9.00;2.63;;;;;;;;;;5070629;28;20196;-76
2023/10/27 09:34:18;;;;;;;10.83;3.40;;;;;;;;;;5070550;28;20201;-76
2023/10/27 09:36:46;;;;;;;14.23;3.13;;;;;;;;;;5069646;28;20727;-76
2023/10/27 09:39:16;;;;;;;9.13;3.00;;;;;;;;;;5070759;28;20284;-76
2023/10/27 09:41:46;;;;;;;7.83;3.70;;;;;;;;;;5069902;28;20329;-76
2023/10/27 09:44:15;;;;;;;8.47;2.67;;;;;;;;;;5070062;28;20205;-76
2023/10/27 09:46:46;;;;;;;8.27;3.27;;;;;;;;;;5069794;28;20212;-76
2023/10/27 09:49:13;;;;;;;6.07;2.73;;;;;;;;;;5070457;28;20205;-76
2023/10/27 09:51:41;;;;;;;6.20;2.53;;;;;;;;;;5069765;28;20200;-76
2023/10/27 09:54:08;;;;;;;7.23;3.27;;;;;;;;;;5070062;28;20235;-77
2023/10/27 09:56:35;;;;;;;11.20;3.77;;;;;;;;;;5043923;28;20695;-76
2023/10/27 09:59:06;;;;;;;12.83;3.67;;;;;;;;;;5069955;28;20213;-76
2023/10/27 10:01:33;;;;;;;7.97;3.27;;;;;;;;;;5070200;28;20201;-76
2023/10/27 10:04:00;;;;;;;10.10;2.90;;;;;;;;;;5069705;28;20706;-76
2023/10/27 10:06:32;;;;;;;10.27;3.37;;;;;;;;;;5069797;28;20201;-76
2023/10/27 10:09:10;;;;;;;7.03;3.03;;;;;;;;;;5070039;28;20201;-76
2023/10/27 10:11:42;;;;;;;10.40;3.23;;;;;;;;;;5069728;28;20741;-76
2023/10/27 10:14:10;;;;;;;11.90;3.73;;;;;;;;;;5069355;28;20697;-76
2023/10/27 10:16:45;;;;;;;4.70;2.77;;;;;;;;;;5069408;28;20221;-76
2023/10/27 10:19:12;;;;;;;11.07;3.10;;;;;;;;;;5069514;28;20200;-77
2023/10/27 10:21:40;;;;;;;7.57;3.00;;;;;;;;;;5056042;28;20205;-74
2023/10/27 10:24:10;;;;;;;10.47;3.30;;;;;;;;;;5056390;28;20209;-80
2023/10/27 10:27:10;;;;;;;7.57;4.30;;;;;;;;;;5061782;28;20216;-74
2023/10/27 10:29:38;;;;;;;12.73;3.77;;;;;;;;;;5051604;28;20616;-75
2023/10/27 10:32:30;;;;;;;8.43;3.53;;;;;;;;;;5066586;28;20629;-75
2023/10/27 10:35:23;;;;;;;8.17;3.13;;;;;;;;;;5069221;28;20206;-75
2023/10/27 10:37:53;;;;;;;7.90;3.17;;;;;;;;;;5057930;28;20221;-76
2023/10/27 10:40:23;;;;;;;13.37;3.63;;;;;;;;;;5055260;28;20772;-76
2023/10/27 10:43:19;;;;;;;9.47;2.67;;;;;;;;;;5059911;28;20595;-76
2023/10/27 10:45:50;;;;;;;8.63;2.47;;;;;;;;;;5065083;28;20233;-75
2023/10/27 10:48:18;;;;;;;12.20;3.13;;;;;;;;;;5070301;28;20228;-75
2023/10/27 10:50:45;;;;;;;10.97;3.93;;;;;;;;;;5062284;28;20788;-76
2023/10/27 10:53:17;;;;;;;5.47;3.40;;;;;;;;;;5057878;28;20260;-75
2023/10/27 10:55:45;;;;;;;7.50;2.87;;;;;;;;;;5059441;28;20593;-75
2023/10/27 10:58:12;;;;;;;13.37;3.97;;;;;;;;;;5062165;28;20654;-76
2023/10/27 11:00:39;;;;;;;6.00;2.53;;;;;;;;;;5069234;28;20198;-77
2023/10/27 11:03:08;;;;;;;7.40;3.00;;;;;;;;;;5072442;28;20204;-76
2023/10/27 11:05:35;;;;;;;8.20;2.53;;;;;;;;;;5072069;28;20206;-77
2023/10/27 11:08:02;;;;;;;7.37;2.83;;;;;;;;;;5068164;28;20198;-76
2023/10/27 11:10:32;;;;;;;2.27;2.00;;;;;;;;;;5064994;28;20201;-77
2023/10/27 11:13:03;;;;;;;7.53;2.23;;;;;;;;;;5071153;28;20213;-76
2023/10/27 11:15:48;;;;;;;5.73;2.57;;;;;;;;;;5072111;28;20683;-77
2023/10/27 11:18:17;;;;;;;9.17;3.03;;;;;;;;;;5054845;28;20308;-76
2023/10/27 11:20:44;;;;;;;4.80;2.50;;;;;;;;;;5056551;28;20311;-76
2023/10/27 11:23:12;;;;;;;4.90;1.77;;;;;;;;;;5066481;28;20213;-80
2023/10/27 11:25:39;;;;;;;4.07;2.40;;;;;;;;;;5062846;28;20276;-80
2023/10/27 11:28:20;;;;;;;5.43;2.50;;;;;;;;;;5046716;28;20193;-80
2023/10/27 11:31:03;;;;;;;4.30;1.87;;;;;;;;;;5066856;28;20627;-79
2023/10/27 11:33:32;;;;;;;6.63;2.87;;;;;;;;;;5058419;28;20201;-78
2023/10/27 11:35:59;;;;;;;6.20;2.30;;;;;;;;;;5064308;28;20224;-78
2023/10/27 11:38:31;;;;;;;6.30;1.93;;;;;;;;;;5054213;28;20202;-79
2023/10/27 11:41:10;;;;;;;4.70;2.10;;;;;;;;;;5065970;28;20209;-76
2023/10/27 11:43:37;;;;;;;6.13;2.20;;;;;;;;;;5061943;28;20225;-76
2023/10/27 11:46:10;;;;;;;7.03;2.53;;;;;;;;;;5063034;28;20266;-76
2023/10/27 11:48:38;;;;;;;3.43;2.37;;;;;;;;;;5066196;28;20694;-76
2023/10/27 11:51:06;;;;;;;7.97;2.70;;;;;;;;;;5057415;28;20249;-76
2023/10/27 11:53:35;;;;;;;6.73;2.57;;;;;;;;;;5060817;28;20266;-76
2023/10/27 11:56:03;;;;;;;6.07;2.57;;;;;;;;;;5058408;28;20638;-77
2023/10/27 11:58:30;;;;;;;4.60;2.60;;;;;;;;;;5070960;28;20616;-78
2023/10/27 12:00:57;;;;;;;4.43;2.30;;;;;;;;;;5071158;28;20197;-79
2023/10/27 12:03:24;;;;;;;4.33;2.00;;;;;;;;;;5068974;28;20197;-79
2023/10/27 12:05:52;;;;;;;4.63;1.80;;;;;;;;;;5070367;28;20213;-79
2023/10/27 12:08:19;;;;;;;9.00;2.63;;;;;;;;;;5070782;28;20690;-79
2023/10/27 12:10:48;;;;;;;4.33;2.13;;;;;;;;;;5070431;28;20220;-80
2023/10/27 12:13:15;;;;;;;7.53;3.03;;;;;;;;;;5071247;28;20258;-79
2023/10/27 12:15:42;;;;;;;5.63;2.30;;;;;;;;;;5069792;28;20200;-79
2023/10/27 12:18:09;;;;;;;7.23;2.60;;;;;;;;;;5066041;28;20221;-79
2023/10/27 12:20:38;;;;;;;5.17;2.23;;;;;;;;;;5065942;28;20208;-83
2023/10/27 12:23:07;;;;;;;5.40;2.17;;;;;;;;;;5059246;28;20664;-78
2023/10/27 12:25:34;;;;;;;4.30;2.03;;;;;;;;;;5051573;28;20691;-79
2023/10/27 12:28:01;;;;;;;12.33;2.53;;;;;;;;;;5054474;28;20695;-79
2023/10/27 12:30:28;;;;;;;3.17;1.93;;;;;;;;;;5060418;28;20203;-79
2023/10/27 12:32:55;;;;;;;5.47;1.87;;;;;;;;;;5064923;28;20205;-79
2023/10/27 12:35:26;;;;;;;6.57;2.03;;;;;;;;;;5037734;28;20693;-78
2023/10/27 12:37:53;;;;;;;5.63;3.07;;;;;;;;;;5051084;28;20237;-78
2023/10/27 12:40:22;;;;;;;5.27;2.73;;;;;;;;;;5051989;28;20280;-76
2023/10/27 12:42:50;;;;;;;8.60;2.17;;;;;;;;;;5064180;28;20744;-78
2023/10/27 12:45:17;;;;;;;9.77;3.13;;;;;;;;;;5070947;28;20208;-78
2023/10/27 12:47:45;;;;;;;4.07;2.13;;;;;;;;;;5057153;28;20205;-81
2023/10/27 12:50:12;;;;;;;5.57;2.33;;;;;;;;;;5063618;28;20240;-80
2023/10/27 12:52:38;;;;;;;4.53;1.93;;;;;;;;;;5062368;28;20216;-80
2023/10/27 12:55:06;;;;;;;5.03;2.53;;;;;;;;;;5061687;28;20202;-80
2023/10/27 12:57:35;;;;;;;9.07;2.83;;;;;;;;;;5055913;28;20238;-80
2023/10/27 13:00:04;;;;;;;9.63;2.30;;;;;;;;;;5061871;28;20676;-80
2023/10/27 13:02:30;;;;;;;8.40;2.13;;;;;;;;;;5066167;28;20215;-80
2023/10/27 13:04:57;;;;;;;6.63;3.07;;;;;;;;;;5065730;28;20607;-80
2023/10/27 13:07:24;;;;;;;4.20;2.07;;;;;;;;;;5070611;28;20208;-80
2023/10/27 13:09:51;;;;;;;6.77;2.27;;;;;;;;;;5069097;28;20197;-80
2023/10/27 13:12:22;;;;;;;11.50;2.40;;;;;;;;;;5069487;28;20197;-80
2023/10/27 13:14:50;;;;;;;3.90;2.10;;;;;;;;;;5070567;28;20223;-80
2023/10/27 13:17:17;;;;;;;8.70;2.90;;;;;;;;;;5070390;28;20728;-80
2023/10/27 13:19:46;;;;;;;6.63;2.33;;;;;;;;;;5070521;28;20212;-80
2023/10/27 13:22:12;;;;;;;8.40;3.07;;;;;;;;;;5070601;28;20251;-80
2023/10/27 13:24:39;;;;;;;6.70;2.93;;;;;;;;;;5070191;28;20208;-80
2023/10/27 13:27:06;;;;;;;4.43;2.57;;;;;;;;;;5069945;28;20201;-80
2023/10/27 13:29:33;;;;;;;9.90;2.53;;;;;;;;;;5070569;28;20617;-80
2023/10/27 13:32:02;;;;;;;7.40;2.30;;;;;;;;;;5070200;28;20201;-81
2023/10/27 13:34:29;;;;;;;7.47;2.87;;;;;;;;;;5069917;28;20208;-81
2023/10/27 13:36:56;;;;;;;7.70;2.23;;;;;;;;;;5069389;28;20227;-81
2023/10/27 13:39:24;;;;;;;9.20;2.67;;;;;;;;;;5056396;28;20212;-81
2023/10/27 13:41:51;;;;;;;9.43;3.10;;;;;;;;;;5059748;28;20303;-81
2023/10/27 13:44:19;;;;;;;6.60;3.00;;;;;;;;;;5064227;28;20213;-79
2023/10/27 13:46:47;;;;;;;8.43;2.70;;;;;;;;;;5050516;28;20297;-79
2023/10/27 13:49:15;;;;;;;5.33;2.10;;;;;;;;;;5063144;28;20213;-79
2023/10/27 13:51:42;;;;;;;7.53;3.03;;;;;;;;;;5050662;28;20540;-79
2023/10/27 13:54:10;;;;;;;6.33;2.57;;;;;;;;;;5050988;28;20293;-79
2023/10/27 13:56:37;;;;;;;6.77;3.03;;;;;;;;;;5038438;28;20661;-79
2023/10/27 13:59:04;;;;;;;11.67;3.30;;;;;;;;;;5064332;28;20224;-79
2023/10/27 14:01:32;;;;;;;11.13;3.17;;;;;;;;;;5069899;28;20284;-81
2023/10/27 14:03:59;;;;;;;8.77;3.20;;;;;;;;;;5071993;28;20205;-82
2023/10/27 14:06:28;;;;;;;11.83;2.67;;;;;;;;;;5058056;28;20197;-81
2023/10/27 14:08:55;;;;;;;11.80;2.90;;;;;;;;;;5068100;28;20201;-81
2023/10/27 14:11:24;;;;;;;8.67;2.60;;;;;;;;;;5071763;28;20203;-82
2023/10/27 14:13:51;;;;;;;13.27;3.80;;;;;;;;;;5072980;28;20197;-81
2023/10/27 14:16:19;;;;;;;5.97;3.00;;;;;;;;;;5073412;28;20288;-80
2023/10/27 14:18:46;;;;;;;10.73;3.53;;;;;;;;;;5071802;28;20254;-81
2023/10/27 14:21:13;;;;;;;11.27;4.07;;;;;;;;;;5073678;28;21165;-81
2023/10/27 14:23:41;;;;;;;11.83;3.43;;;;;;;;;;5059715;28;20205;-81
2023/10/27 14:26:11;;;;;;;11.80;2.90;;;;;;;;;;5073141;28;20203;-81
2023/10/27 14:28:41;;;;;;;9.23;2.67;;;;;;;;;;5071551;28;20211;-82
2023/10/27 14:31:08;;;;;;;9.67;3.90;;;;;;;;;;5072405;28;20205;-81
2023/10/27 14:33:35;;;;;;;7.60;2.90;;;;;;;;;;5071611;28;20208;-81
2023/10/27 14:36:08;;;;;;;10.47;3.67;;;;;;;;;;5072644;28;20201;-81
2023/10/27 14:38:35;;;;;;;26.57;11.90;;;;;;;;;;5072903;28;20651;-81
2023/10/27 14:41:03;;;;;;;102.20;59.30;;;;;;;;;;5072964;28;20601;-81
2023/10/27 14:43:30;;;;;;;37.97;22.80;;;;;;;;;;5046453;28;20571;-81
2023/10/27 14:45:59;;;;;;;29.87;19.47;;;;;;;;;;5073306;28;20227;-81